aviador You're here:

CYKY Decoded Metar

KINDERSLEY in SK, CANADA
Report Time2018-07-22 14:00:00
UTC Time2018-07-22 14:21:36
Flight Rules vfr VFR
Wind280° at 15 kt
W.Decomp.*RWY 26: 14.9 kt HW 1.6 kt RCW
RWY 35: 1.6 kt HW 14.9 kt LCW
W.Rank280° ranks 8
Current wind is above 280° avg. (9.2)
Visibility9999 m
Phenomena:N/A
Clouds:Few 008 Hf
Few 050 Hf
Broken 070 Hf
Expected CloudBase > 1,200 ft AGL from Temp-Dew spread
Ceiling7,000 ft
Temp13°C (ISA +3)
Dew Point10°C (82% RH)
AAT7.6°C
QNH1017 hPa
Density Alt2,615 ft
Elevation2,277 ft
Report Wrong Elevation
Raw Report
CYKY 221400Z 28015KT 15SM FEW008 FEW050 BKN070 13/10 A3003 RMK
SF1SC1AC6 SF TR SC TR SLP170 DENSITY ALT 2500FT=

Extra information for CYKY:More info

Metar Taf Metar & Taf Last 4 Metars F.Rules Stats Wind Profile Meteogram Temp Stats Airport Information Weather charts Add Link Nearby VenuesMetar ALERT Operation Metar Decoded Social comments